createdAt,value
2017-07-19T00:00:06.217Z,0
2017-07-19T00:00:46.690Z,0
2017-07-19T00:01:27.151Z,0
2017-07-19T00:02:07.627Z,0
2017-07-19T00:02:48.122Z,0
2017-07-19T00:03:28.610Z,0
2017-07-19T00:04:09.073Z,0
2017-07-19T00:04:49.529Z,0
2017-07-19T00:07:17.536Z,0
2017-07-19T00:07:58.031Z,0
2017-07-19T00:08:38.543Z,0
2017-07-19T00:09:19.009Z,0
2017-07-19T00:09:59.512Z,0
2017-07-19T00:10:39.989Z,0
2017-07-19T00:11:20.479Z,0
2017-07-19T00:12:00.966Z,0
2017-07-19T00:12:41.484Z,0
2017-07-19T00:13:21.966Z,0
2017-07-19T00:14:02.425Z,0
2017-07-19T00:14:42.942Z,0
2017-07-19T00:15:23.398Z,0
2017-07-19T00:18:01.479Z,0
2017-07-19T00:18:41.965Z,0
2017-07-19T00:19:22.456Z,0
2017-07-19T00:20:02.945Z,0
2017-07-19T00:20:43.499Z,0
2017-07-19T00:21:23.916Z,0
2017-07-19T00:22:04.379Z,0
2017-07-19T00:24:32.397Z,0
2017-07-19T00:25:12.884Z,0
2017-07-19T00:25:53.328Z,0
2017-07-19T00:26:33.818Z,0
2017-07-19T00:27:14.318Z,0
2017-07-19T00:27:54.796Z,0
2017-07-19T00:28:35.306Z,0
2017-07-19T00:29:15.819Z,0
2017-07-19T00:29:56.291Z,0
2017-07-19T00:30:36.800Z,0
2017-07-19T00:31:17.252Z,0
2017-07-19T00:33:50.246Z,0
2017-07-19T00:34:30.741Z,0
2017-07-19T00:35:11.242Z,0
2017-07-19T00:35:51.745Z,0
2017-07-19T00:36:32.218Z,0
2017-07-19T00:37:12.704Z,0
2017-07-19T00:37:53.220Z,0
2017-07-19T00:38:33.716Z,0
2017-07-19T00:39:14.203Z,0
2017-07-19T00:39:54.664Z,0
2017-07-19T00:40:35.134Z,0
2017-07-19T00:41:15.599Z,0
2017-07-19T00:41:56.061Z,0
2017-07-19T00:42:36.520Z,0
2017-07-19T00:43:16.959Z,0
2017-07-19T00:45:29.721Z,0
2017-07-19T00:46:10.254Z,0
2017-07-19T00:46:50.711Z,0
2017-07-19T00:47:31.180Z,0
2017-07-19T00:48:11.672Z,0
2017-07-19T00:50:49.804Z,0
2017-07-19T00:51:30.304Z,0
2017-07-19T00:52:10.769Z,0
2017-07-19T00:52:51.224Z,0
2017-07-19T00:53:31.681Z,0
2017-07-19T00:54:12.139Z,0
2017-07-19T00:54:52.575Z,0
2017-07-19T00:55:33.055Z,0
2017-07-19T00:58:11.182Z,0
2017-07-19T00:58:51.709Z,0
2017-07-19T00:59:32.148Z,0
2017-07-19T01:00:12.646Z,0
2017-07-19T01:00:53.124Z,0
2017-07-19T01:01:33.598Z,0
2017-07-19T01:02:14.041Z,0
2017-07-19T01:02:54.544Z,0
2017-07-19T01:06:49.677Z,0
2017-07-19T01:07:30.158Z,0
2017-07-19T01:08:10.606Z,0
2017-07-19T01:08:51.125Z,0
2017-07-19T01:11:19.039Z,0
2017-07-19T01:11:59.543Z,0
2017-07-19T01:12:40.035Z,0
2017-07-19T01:13:20.503Z,0
2017-07-19T01:14:01.009Z,0
2017-07-19T01:14:41.489Z,0
2017-07-19T01:15:21.946Z,0
2017-07-19T01:16:02.402Z,0
2017-07-19T01:18:35.463Z,0
2017-07-19T01:19:15.976Z,0
2017-07-19T01:19:56.376Z,0
2017-07-19T01:20:36.881Z,0
2017-07-19T01:21:17.327Z,0
2017-07-19T01:21:57.832Z,0
2017-07-19T01:22:38.295Z,0
2017-07-19T01:23:18.757Z,0
2017-07-19T01:23:59.264Z,0
2017-07-19T01:24:39.700Z,0
2017-07-19T01:25:20.125Z,0
2017-07-19T01:26:00.617Z,0
2017-07-19T01:26:41.080Z,0
2017-07-19T01:29:09.001Z,0
2017-07-19T01:29:49.524Z,0
2017-07-19T01:30:29.998Z,0
2017-07-19T01:31:10.490Z,0
2017-07-19T01:31:50.960Z,0
2017-07-19T01:32:31.385Z,0
2017-07-19T01:33:11.825Z,0
2017-07-19T01:33:52.312Z,0
2017-07-19T01:34:32.763Z,0
2017-07-19T01:35:13.214Z,0
2017-07-19T01:35:53.712Z,0
2017-07-19T01:36:34.130Z,0
2017-07-19T01:38:51.986Z,0
2017-07-19T01:39:32.391Z,0
2017-07-19T01:40:12.820Z,0
2017-07-19T01:40:53.294Z,0
2017-07-19T01:41:33.745Z,0
2017-07-19T01:42:14.186Z,0
2017-07-19T01:42:54.685Z,0
2017-07-19T01:43:35.158Z,0
2017-07-19T01:44:15.583Z,0
2017-07-19T01:44:56.059Z,0
2017-07-19T01:45:36.517Z,0
2017-07-19T01:46:16.977Z,0
2017-07-19T01:46:57.418Z,0
2017-07-19T01:47:37.859Z,0
2017-07-19T01:48:18.317Z,0
2017-07-19T01:48:58.767Z,0
2017-07-19T01:49:39.237Z,0
2017-07-19T01:50:19.688Z,0
2017-07-19T01:51:00.132Z,0
2017-07-19T01:53:38.305Z,0
2017-07-19T01:54:18.794Z,0
2017-07-19T01:54:59.246Z,0
2017-07-19T01:55:39.690Z,0
2017-07-19T01:56:20.143Z,0
2017-07-19T01:57:00.575Z,0
2017-07-19T01:57:41.064Z,0
2017-07-19T02:00:14.112Z,0
2017-07-19T02:00:54.549Z,0
2017-07-19T02:03:27.691Z,0
2017-07-19T02:04:08.188Z,0
2017-07-19T02:04:48.682Z,0
2017-07-19T02:05:29.124Z,0
2017-07-19T02:06:09.545Z,0
2017-07-19T02:06:50.001Z,0
2017-07-19T02:07:30.454Z,0
2017-07-19T02:08:10.891Z,0
2017-07-19T02:08:51.366Z,0
2017-07-19T02:09:31.882Z,0
2017-07-19T02:10:12.298Z,0
2017-07-19T02:10:52.759Z,0
2017-07-19T02:11:33.224Z,0
2017-07-19T02:12:13.711Z,0
2017-07-19T02:12:54.134Z,0
2017-07-19T02:13:34.580Z,0
2017-07-19T02:14:15.114Z,0
2017-07-19T02:14:55.570Z,0
2017-07-19T02:15:36.018Z,0
2017-07-19T02:16:16.447Z,0
2017-07-19T02:16:56.943Z,0
2017-07-19T02:17:37.371Z,0
2017-07-19T02:19:50.109Z,0
2017-07-19T02:20:30.610Z,0
2017-07-19T02:21:11.090Z,0
2017-07-19T02:21:51.578Z,0
2017-07-19T02:22:32.040Z,0
2017-07-19T02:23:12.459Z,0
2017-07-19T02:23:52.978Z,0
2017-07-19T02:26:26.023Z,0
2017-07-19T02:27:06.453Z,0
2017-07-19T02:27:46.911Z,0
2017-07-19T02:28:27.362Z,0
2017-07-19T02:29:07.817Z,0
2017-07-19T02:29:48.335Z,0
2017-07-19T02:30:28.802Z,0
2017-07-19T02:33:01.832Z,0
2017-07-19T02:33:42.326Z,0
2017-07-19T02:34:22.781Z,0
2017-07-19T02:37:00.914Z,0
2017-07-19T02:37:41.409Z,0
2017-07-19T02:38:21.885Z,0
2017-07-19T02:39:02.399Z,0
2017-07-19T02:39:42.822Z,0
2017-07-19T02:40:23.328Z,0
2017-07-19T02:41:03.799Z,0
2017-07-19T02:41:44.255Z,0
2017-07-19T02:42:24.724Z,0
2017-07-19T02:43:05.152Z,0
2017-07-19T02:43:45.609Z,0
2017-07-19T02:44:26.026Z,0
2017-07-19T02:45:06.469Z,0
2017-07-19T02:45:46.940Z,0
2017-07-19T02:46:27.436Z,0
2017-07-19T02:47:07.897Z,0
2017-07-19T02:47:48.379Z,0
2017-07-19T02:48:28.797Z,0
2017-07-19T02:49:09.281Z,0
2017-07-19T02:49:49.755Z,0
2017-07-19T02:50:30.281Z,0
2017-07-19T02:51:10.745Z,0
2017-07-19T02:51:51.235Z,0
2017-07-19T02:52:31.692Z,0
2017-07-19T02:53:12.144Z,0
2017-07-19T02:53:52.643Z,0
2017-07-19T02:54:33.089Z,0
2017-07-19T02:57:11.180Z,0
2017-07-19T02:57:51.657Z,0
2017-07-19T02:58:32.114Z,0
2017-07-19T02:59:12.599Z,0
2017-07-19T02:59:53.069Z,0
2017-07-19T03:00:33.517Z,0
2017-07-19T03:01:14.026Z,0
2017-07-19T03:01:54.456Z,0
2017-07-19T03:02:34.929Z,0
2017-07-19T03:03:15.407Z,0
2017-07-19T03:03:55.839Z,0
2017-07-19T03:04:36.318Z,0
2017-07-19T03:05:16.739Z,0
2017-07-19T03:05:57.202Z,0
2017-07-19T03:06:37.705Z,0
2017-07-19T03:07:18.136Z,0
2017-07-19T03:07:58.605Z,0
2017-07-19T03:10:36.705Z,0
2017-07-19T03:11:17.187Z,0
2017-07-19T03:13:45.143Z,0
2017-07-19T03:14:25.643Z,0
2017-07-19T03:15:06.110Z,0
2017-07-19T03:15:46.625Z,0
2017-07-19T03:16:27.108Z,0
2017-07-19T03:17:07.644Z,0
2017-07-19T03:17:48.133Z,0
2017-07-19T03:18:28.615Z,0
2017-07-19T03:19:09.063Z,0
2017-07-19T03:19:49.527Z,0
2017-07-19T03:20:29.980Z,0
2017-07-19T03:23:02.983Z,0
2017-07-19T03:23:43.453Z,0
2017-07-19T03:24:23.949Z,0
2017-07-19T03:25:04.385Z,0
2017-07-19T03:25:44.838Z,0
2017-07-19T03:26:25.304Z,0
2017-07-19T03:29:03.380Z,0
2017-07-19T03:29:43.864Z,0
2017-07-19T03:30:24.362Z,0
2017-07-19T03:31:04.821Z,0
2017-07-19T03:31:45.308Z,0
2017-07-19T03:34:13.293Z,0
2017-07-19T03:34:53.823Z,0
2017-07-19T03:35:34.259Z,0
2017-07-19T03:36:14.691Z,0
2017-07-19T03:38:27.423Z,0
2017-07-19T03:39:07.894Z,0
2017-07-19T03:39:48.368Z,0
2017-07-19T03:40:28.864Z,0
2017-07-19T03:41:09.395Z,5
2017-07-19T03:41:49.802Z,5
2017-07-19T03:42:30.271Z,5
2017-07-19T03:43:10.719Z,5
2017-07-19T03:43:51.168Z,5
2017-07-19T03:44:31.611Z,5
2017-07-19T03:47:04.627Z,5
2017-07-19T03:47:45.134Z,5
2017-07-19T03:48:25.611Z,5
2017-07-19T03:49:06.099Z,5
2017-07-19T03:49:46.582Z,5
2017-07-19T03:50:27.020Z,5
2017-07-19T03:51:07.482Z,5
2017-07-19T03:51:47.933Z,10
2017-07-19T03:52:28.405Z,10
2017-07-19T03:53:08.899Z,10
2017-07-19T03:55:21.649Z,10
2017-07-19T03:56:02.128Z,10
2017-07-19T03:56:42.587Z,10
2017-07-19T03:57:23.065Z,10
2017-07-19T03:58:03.492Z,10
2017-07-19T03:58:43.956Z,10
2017-07-19T04:01:01.836Z,15
2017-07-19T04:01:42.263Z,15
2017-07-19T04:04:10.221Z,15
2017-07-19T04:04:50.727Z,15
2017-07-19T04:05:31.202Z,15
2017-07-19T04:06:11.717Z,15
2017-07-19T04:06:52.182Z,20
2017-07-19T04:07:32.720Z,20
2017-07-19T04:08:13.150Z,20
2017-07-19T04:08:53.590Z,20
2017-07-19T04:09:34.009Z,20
2017-07-19T04:10:14.480Z,20
2017-07-19T04:10:54.925Z,20
2017-07-19T04:11:35.391Z,20
2017-07-19T04:13:53.213Z,25
2017-07-19T04:14:33.669Z,25
2017-07-19T04:15:14.111Z,25
2017-07-19T04:15:54.584Z,25
2017-07-19T04:16:35.032Z,25
2017-07-19T04:17:15.526Z,25
2017-07-19T04:17:55.957Z,30
2017-07-19T04:18:36.435Z,30
2017-07-19T04:19:16.879Z,30
2017-07-19T04:19:57.307Z,30
2017-07-19T04:22:15.233Z,35
2017-07-19T04:22:55.697Z,35
2017-07-19T04:23:36.151Z,35
2017-07-19T04:24:16.614Z,35
2017-07-19T04:24:57.106Z,35
2017-07-19T04:25:37.574Z,35
2017-07-19T04:26:18.134Z,40
2017-07-19T04:26:58.584Z,40
2017-07-19T04:27:39.063Z,40
2017-07-19T04:28:19.537Z,40
2017-07-19T04:28:59.982Z,40
2017-07-19T04:29:40.439Z,45
2017-07-19T04:30:21.109Z,45
2017-07-19T04:32:59.229Z,50
2017-07-19T04:33:39.686Z,50
2017-07-19T04:34:20.147Z,50
2017-07-19T04:35:00.626Z,50
2017-07-19T04:35:41.095Z,50
2017-07-19T04:38:09.029Z,55
2017-07-19T04:38:49.512Z,55
2017-07-19T04:39:29.994Z,60
2017-07-19T04:40:10.476Z,60
2017-07-19T04:40:51.002Z,60
2017-07-19T04:41:31.466Z,60
2017-07-19T04:42:11.885Z,60
2017-07-19T04:42:52.329Z,65
2017-07-19T04:43:32.775Z,65
2017-07-19T04:44:13.236Z,65
2017-07-19T04:46:31.094Z,75
2017-07-19T04:47:11.583Z,80
2017-07-19T04:47:52.084Z,80
2017-07-19T04:48:32.549Z,80
2017-07-19T04:51:05.559Z,85
2017-07-19T04:51:46.068Z,85
2017-07-19T04:54:24.203Z,90
2017-07-19T04:55:04.700Z,95
2017-07-19T04:57:42.808Z,100
2017-07-19T05:00:23.332Z,105
2017-07-19T05:01:03.790Z,105
2017-07-19T05:01:44.229Z,110
2017-07-19T05:02:24.707Z,110
2017-07-19T05:03:05.202Z,110
2017-07-19T05:03:45.668Z,120
2017-07-19T05:04:26.080Z,120
2017-07-19T05:06:59.094Z,120
2017-07-19T05:07:39.549Z,120
2017-07-19T05:08:20.043Z,120
2017-07-19T05:09:00.496Z,120
2017-07-19T05:09:40.992Z,125
2017-07-19T05:10:21.457Z,125
2017-07-19T05:11:01.938Z,125
2017-07-19T05:11:42.390Z,125
2017-07-19T05:12:22.850Z,125
2017-07-19T05:13:03.315Z,120
2017-07-19T05:13:43.725Z,125
2017-07-19T05:15:56.534Z,130
2017-07-19T05:16:37.023Z,135
2017-07-19T05:17:17.490Z,135
2017-07-19T05:17:57.906Z,140
2017-07-19T05:18:38.364Z,140
2017-07-19T05:21:16.447Z,145
2017-07-19T05:21:56.904Z,150
2017-07-19T05:22:37.377Z,150
2017-07-19T05:23:17.857Z,150
2017-07-19T05:23:58.272Z,150
2017-07-19T05:24:38.736Z,155
2017-07-19T05:26:56.585Z,160
2017-07-19T05:27:37.027Z,165
2017-07-19T05:28:17.471Z,160
2017-07-19T05:28:57.891Z,160
2017-07-19T05:29:38.368Z,155
2017-07-19T05:30:18.826Z,155
2017-07-19T05:30:59.314Z,160
2017-07-19T05:31:39.802Z,165
2017-07-19T05:32:20.256Z,170
2017-07-19T05:33:00.685Z,170
2017-07-19T05:33:41.210Z,170
2017-07-19T05:36:19.397Z,170
2017-07-19T05:36:59.811Z,175
2017-07-19T05:37:40.323Z,175
2017-07-19T05:38:20.722Z,175
2017-07-19T05:39:01.992Z,175
2017-07-19T05:39:42.447Z,180
2017-07-19T05:40:22.909Z,180
2017-07-19T05:41:03.353Z,180
2017-07-19T05:41:43.812Z,185
2017-07-19T05:43:56.557Z,190
2017-07-19T05:44:37.034Z,190
2017-07-19T05:47:15.143Z,195
2017-07-19T05:47:55.598Z,200
2017-07-19T05:50:33.767Z,205
2017-07-19T05:51:14.228Z,205
2017-07-19T05:51:54.725Z,210
2017-07-19T05:52:35.146Z,210
2017-07-19T05:53:15.595Z,215
2017-07-19T05:53:56.018Z,215
2017-07-19T05:54:36.473Z,215
2017-07-19T05:55:16.943Z,220
2017-07-19T05:55:57.399Z,220
2017-07-19T05:56:37.853Z,220
2017-07-19T05:57:18.314Z,225
2017-07-19T05:59:51.353Z,230
2017-07-19T06:00:31.823Z,240
2017-07-19T06:01:13.187Z,235
2017-07-19T06:03:46.307Z,245
2017-07-19T06:04:26.762Z,240
2017-07-19T06:06:59.860Z,245
2017-07-19T06:07:40.273Z,250
2017-07-19T06:08:20.752Z,250
2017-07-19T06:09:01.188Z,255
2017-07-19T06:09:41.685Z,255
2017-07-19T06:10:22.071Z,260
2017-07-19T06:11:02.564Z,260
2017-07-19T06:11:43.076Z,265
2017-07-19T06:12:23.500Z,265
2017-07-19T06:13:04.005Z,265
2017-07-19T06:13:44.453Z,265
2017-07-19T06:14:24.876Z,270
2017-07-19T06:16:42.721Z,280
2017-07-19T06:17:23.190Z,275
2017-07-19T06:18:03.701Z,280
2017-07-19T06:18:44.202Z,280
2017-07-19T06:19:24.659Z,285
2017-07-19T06:20:05.181Z,285
2017-07-19T06:20:45.671Z,290
2017-07-19T06:21:26.088Z,290
2017-07-19T06:22:06.566Z,295
2017-07-19T06:24:39.909Z,305
2017-07-19T06:25:20.378Z,305
2017-07-19T06:26:00.778Z,310
2017-07-19T06:26:41.250Z,310
2017-07-19T06:27:21.718Z,310
2017-07-19T06:28:02.174Z,310
2017-07-19T06:28:42.627Z,315
2017-07-19T06:29:23.081Z,320
2017-07-19T06:30:03.519Z,320
2017-07-19T06:30:43.987Z,325
2017-07-19T06:31:24.429Z,325
2017-07-19T06:32:04.889Z,330
2017-07-19T06:32:45.337Z,330
2017-07-19T06:33:25.816Z,330
2017-07-19T06:34:06.323Z,335
2017-07-19T06:34:46.795Z,335
2017-07-19T06:35:27.292Z,340
2017-07-19T06:36:07.737Z,340
2017-07-19T06:36:48.190Z,345
2017-07-19T06:37:28.670Z,345
2017-07-19T06:38:09.104Z,350
2017-07-19T06:38:49.555Z,350
2017-07-19T06:39:30.104Z,350
2017-07-19T06:40:10.571Z,355
2017-07-19T06:40:51.119Z,360
2017-07-19T06:41:31.517Z,365
2017-07-19T06:42:12.082Z,365
2017-07-19T06:42:52.526Z,365
2017-07-19T06:43:33.006Z,365
2017-07-19T06:44:13.454Z,370
2017-07-19T06:44:54.006Z,375
2017-07-19T06:45:34.478Z,380
2017-07-19T06:46:14.955Z,380
2017-07-19T06:46:55.475Z,380
2017-07-19T06:47:35.943Z,385
2017-07-19T06:48:16.330Z,395
2017-07-19T06:50:49.378Z,400
2017-07-19T06:51:29.888Z,395
2017-07-19T06:52:10.396Z,400
2017-07-19T06:52:50.894Z,400
2017-07-19T06:53:31.436Z,405
2017-07-19T06:54:11.860Z,405
2017-07-19T06:54:52.315Z,410
2017-07-19T06:55:32.828Z,410
2017-07-19T06:56:13.278Z,415
2017-07-19T06:56:53.759Z,420
2017-07-19T06:57:34.221Z,425
2017-07-19T06:58:14.713Z,425
2017-07-19T06:58:55.321Z,430
2017-07-19T06:59:35.957Z,430
2017-07-19T07:00:16.734Z,435
2017-07-19T07:00:58.292Z,440
2017-07-19T07:01:38.742Z,445
2017-07-19T07:02:19.266Z,445
2017-07-19T07:02:59.727Z,450
2017-07-19T07:03:40.143Z,455
2017-07-19T07:04:20.623Z,460
2017-07-19T07:05:01.242Z,460
2017-07-19T07:05:41.728Z,465
2017-07-19T07:06:22.211Z,470
2017-07-19T07:07:02.619Z,470
2017-07-19T07:07:43.096Z,475
2017-07-19T07:08:23.574Z,480
2017-07-19T07:09:04.031Z,485
2017-07-19T07:09:44.516Z,485
2017-07-19T07:10:24.949Z,490
2017-07-19T07:11:05.418Z,495
2017-07-19T07:11:45.866Z,500
2017-07-19T07:12:26.356Z,500
2017-07-19T07:13:06.809Z,505
2017-07-19T07:13:47.251Z,510
2017-07-19T07:14:27.801Z,510
2017-07-19T07:15:08.280Z,515
2017-07-19T07:15:48.746Z,520
2017-07-19T07:16:29.173Z,520
2017-07-19T07:17:09.643Z,530
2017-07-19T07:17:50.094Z,530
2017-07-19T07:18:30.583Z,535
2017-07-19T07:19:11.061Z,545
2017-07-19T07:19:51.557Z,545
2017-07-19T07:20:32.028Z,550
2017-07-19T07:21:12.517Z,555
2017-07-19T07:21:53.689Z,565
2017-07-19T07:22:34.147Z,570
2017-07-19T07:23:14.590Z,570
2017-07-19T07:23:55.029Z,575
2017-07-19T07:26:23.030Z,595
2017-07-19T07:27:03.508Z,595
2017-07-19T07:27:44.035Z,600
2017-07-19T07:28:24.549Z,605
2017-07-19T07:29:05.035Z,615
2017-07-19T07:29:45.516Z,615
2017-07-19T07:30:25.986Z,615
2017-07-19T07:31:06.520Z,620
2017-07-19T07:31:47.042Z,625
2017-07-19T07:32:27.581Z,625
2017-07-19T07:33:08.123Z,635
2017-07-19T07:35:20.928Z,650
2017-07-19T07:36:01.394Z,660
2017-07-19T07:36:41.843Z,665
2017-07-19T07:37:22.350Z,675
2017-07-19T07:38:02.848Z,690
2017-07-19T07:38:43.364Z,700
2017-07-19T07:39:23.835Z,705
2017-07-19T07:40:04.320Z,715
2017-07-19T07:40:44.869Z,730
2017-07-19T07:41:25.418Z,745
2017-07-19T07:42:05.873Z,760
2017-07-19T07:42:46.341Z,780
2017-07-19T07:43:26.809Z,815
2017-07-19T07:45:39.555Z,1865
2017-07-19T07:46:19.997Z,2820
2017-07-19T07:47:00.531Z,3440
2017-07-19T07:47:41.016Z,3055
2017-07-19T07:48:21.472Z,2320
2017-07-19T07:49:01.959Z,1855
2017-07-19T07:49:42.431Z,1710
2017-07-19T07:50:22.875Z,1695
2017-07-19T07:53:01.018Z,1935
2017-07-19T07:53:41.592Z,1850
2017-07-19T07:54:22.040Z,1730
2017-07-19T07:55:02.611Z,1625
2017-07-19T07:57:15.484Z,1130
2017-07-19T07:57:56.051Z,945
2017-07-19T07:58:36.676Z,765
2017-07-19T08:00:49.533Z,560
2017-07-19T08:01:30.062Z,565
2017-07-19T08:02:10.622Z,570
2017-07-19T08:02:51.165Z,570
2017-07-19T08:03:31.629Z,575
2017-07-19T08:04:12.162Z,570
2017-07-19T08:04:52.672Z,575
2017-07-19T08:07:30.885Z,615
2017-07-19T08:08:11.333Z,640
2017-07-19T08:08:51.812Z,715
2017-07-19T08:09:32.296Z,785
2017-07-19T08:10:12.852Z,780
2017-07-19T08:10:53.324Z,705
2017-07-19T08:13:06.077Z,710
2017-07-19T08:13:46.564Z,715
2017-07-19T08:14:27.047Z,705
2017-07-19T08:15:07.580Z,720
2017-07-19T08:15:48.082Z,775
2017-07-19T08:16:28.544Z,810
2017-07-19T08:17:08.982Z,820
2017-07-19T08:17:49.481Z,790
2017-07-19T08:20:27.907Z,860
2017-07-19T08:21:08.599Z,870
2017-07-19T08:21:49.063Z,875
2017-07-19T08:22:29.591Z,870
2017-07-19T08:23:10.035Z,870
2017-07-19T08:23:50.500Z,885
2017-07-19T08:24:31.012Z,915
2017-07-19T08:25:11.459Z,940
2017-07-19T08:25:51.977Z,1000
2017-07-19T08:26:32.474Z,1090
2017-07-19T08:27:12.999Z,1175
2017-07-19T08:27:54.312Z,1310
2017-07-19T08:28:34.853Z,1445
2017-07-19T08:29:15.374Z,1550
2017-07-19T08:29:55.872Z,1565
2017-07-19T08:32:28.946Z,850
2017-07-19T08:33:09.420Z,705
2017-07-19T08:33:49.883Z,690
2017-07-19T08:34:30.446Z,670
2017-07-19T08:35:10.955Z,670
2017-07-19T08:35:51.520Z,655
2017-07-19T08:36:32.045Z,645
2017-07-19T08:38:44.832Z,645
2017-07-19T08:39:25.317Z,650
2017-07-19T08:40:05.832Z,650
2017-07-19T08:40:46.364Z,665
2017-07-19T08:43:19.466Z,965
2017-07-19T08:43:59.968Z,1115
2017-07-19T08:44:40.487Z,1290
2017-07-19T08:45:20.982Z,1445
2017-07-19T08:46:01.500Z,1590
2017-07-19T08:46:42.068Z,1715
2017-07-19T08:47:22.640Z,1815
2017-07-19T08:48:03.189Z,1580
2017-07-19T08:48:43.715Z,1130
2017-07-19T08:49:24.227Z,670
2017-07-19T08:50:04.755Z,580
2017-07-19T08:50:45.254Z,565
2017-07-19T08:53:03.076Z,555
2017-07-19T08:53:43.638Z,550
2017-07-19T08:54:24.761Z,550
2017-07-19T08:55:05.277Z,550
2017-07-19T08:55:45.780Z,555
2017-07-19T08:56:26.256Z,560
2017-07-19T08:57:06.782Z,560
2017-07-19T08:57:47.237Z,565
2017-07-19T09:00:00.002Z,1450
2017-07-19T09:00:40.573Z,2050
2017-07-19T09:01:21.103Z,2450
2017-07-19T09:02:01.560Z,2485
2017-07-19T09:02:42.062Z,2475
2017-07-19T09:03:22.521Z,2455
2017-07-19T09:04:03.008Z,2475
2017-07-19T09:04:43.498Z,2465
2017-07-19T09:05:23.957Z,2470
2017-07-19T09:06:04.412Z,2460
2017-07-19T09:08:17.212Z,2335
2017-07-19T09:08:57.705Z,2320
2017-07-19T09:09:38.214Z,2295
2017-07-19T09:10:18.686Z,2315
2017-07-19T09:10:59.206Z,2330
2017-07-19T09:11:39.725Z,2360
2017-07-19T09:12:20.343Z,2405
2017-07-19T09:13:00.925Z,2410
2017-07-19T09:13:41.417Z,2335
2017-07-19T09:14:21.898Z,2325
2017-07-19T09:15:02.379Z,2395
2017-07-19T09:15:42.907Z,2390
2017-07-19T09:16:23.378Z,2340
2017-07-19T09:17:03.821Z,2310
2017-07-19T09:17:44.315Z,2385
2017-07-19T09:18:24.790Z,2450
2017-07-19T09:20:37.561Z,2575
2017-07-19T09:21:18.056Z,2515
2017-07-19T09:21:58.685Z,2420
2017-07-19T09:22:39.967Z,2410
2017-07-19T09:23:20.536Z,2455
2017-07-19T09:24:01.090Z,2490
2017-07-19T09:24:41.515Z,2535
2017-07-19T09:26:59.414Z,2430
2017-07-19T09:27:39.936Z,2490
2017-07-19T09:28:20.447Z,2550
2017-07-19T09:29:00.936Z,2520
2017-07-19T09:31:34.081Z,2310
2017-07-19T09:32:14.610Z,2300
2017-07-19T09:32:55.144Z,2335
2017-07-19T09:33:35.624Z,2405
2017-07-19T09:34:16.148Z,2500
2017-07-19T09:34:56.661Z,2530
2017-07-19T09:35:37.178Z,2600
2017-07-19T09:36:18.312Z,2575
2017-07-19T09:36:58.815Z,2590
2017-07-19T09:37:39.387Z,2635
2017-07-19T09:38:19.934Z,2700
2017-07-19T09:39:00.492Z,2665
2017-07-19T09:39:40.965Z,2635
2017-07-19T09:42:19.124Z,2375
2017-07-19T09:42:59.605Z,2110
2017-07-19T09:43:40.075Z,1815
2017-07-19T09:44:20.705Z,1255
2017-07-19T09:45:01.275Z,845
2017-07-19T09:45:41.829Z,795
2017-07-19T09:46:22.305Z,750
2017-07-19T09:47:02.823Z,745
2017-07-19T09:47:43.371Z,725
2017-07-19T09:48:23.837Z,720
2017-07-19T09:49:04.312Z,715
2017-07-19T09:49:44.799Z,715
2017-07-19T09:50:25.294Z,715
2017-07-19T09:51:05.777Z,720
2017-07-19T09:51:46.253Z,740
2017-07-19T09:52:26.755Z,755
2017-07-19T09:53:07.239Z,775
2017-07-19T09:55:40.421Z,1995
2017-07-19T09:56:20.974Z,2445
2017-07-19T09:57:01.504Z,2585
2017-07-19T09:57:42.023Z,2480
2017-07-19T09:58:22.502Z,2515
2017-07-19T09:59:03.188Z,2630
2017-07-19T09:59:43.704Z,2730
2017-07-19T10:00:24.215Z,2720
2017-07-19T10:02:52.243Z,2755
2017-07-19T10:03:32.750Z,2760
2017-07-19T10:04:13.261Z,2765
2017-07-19T10:04:53.737Z,2780
2017-07-19T10:05:34.231Z,2805
2017-07-19T10:08:07.337Z,2935
2017-07-19T10:08:47.853Z,2930
2017-07-19T10:11:15.854Z,2875
2017-07-19T10:11:56.452Z,2890
2017-07-19T10:12:37.144Z,2900
2017-07-19T10:13:17.724Z,2855
2017-07-19T10:13:58.281Z,2890
2017-07-19T10:14:38.806Z,2890
2017-07-19T10:15:19.264Z,2870
2017-07-19T10:15:59.766Z,2805
2017-07-19T10:16:40.316Z,2860
2017-07-19T10:17:20.802Z,2910
2017-07-19T10:18:01.284Z,2900
2017-07-19T10:18:41.806Z,2895
2017-07-19T10:19:22.281Z,2885
2017-07-19T10:20:02.814Z,2970
2017-07-19T10:22:30.828Z,3015
2017-07-19T10:23:11.278Z,2925
2017-07-19T10:23:51.761Z,2915
2017-07-19T10:24:32.299Z,2920
2017-07-19T10:25:12.749Z,2835
2017-07-19T10:25:53.238Z,2735
2017-07-19T10:28:06.025Z,2705
2017-07-19T10:28:47.391Z,2775
2017-07-19T10:29:27.891Z,2805
2017-07-19T10:30:08.394Z,2145
2017-07-19T10:30:48.849Z,1210
2017-07-19T10:31:29.326Z,585
2017-07-19T10:32:09.817Z,545
2017-07-19T10:32:50.254Z,525
2017-07-19T10:33:30.707Z,520
2017-07-19T10:34:11.171Z,515
2017-07-19T10:34:51.627Z,505
2017-07-19T10:35:32.118Z,500
2017-07-19T10:36:12.628Z,490
2017-07-19T10:36:53.112Z,485
2017-07-19T10:37:33.620Z,475
2017-07-19T10:40:06.697Z,450
2017-07-19T10:40:47.200Z,450
2017-07-19T10:41:27.699Z,450
2017-07-19T10:42:08.194Z,455
2017-07-19T10:42:48.708Z,460
2017-07-19T10:43:29.212Z,460
2017-07-19T10:44:09.733Z,470
2017-07-19T10:44:50.392Z,500
2017-07-19T10:45:30.856Z,510
2017-07-19T10:46:11.347Z,500
2017-07-19T10:46:51.850Z,500
2017-07-19T10:49:04.665Z,540
2017-07-19T10:49:45.156Z,480
2017-07-19T10:50:25.598Z,480
2017-07-19T10:52:53.623Z,1010
2017-07-19T10:55:31.784Z,3180
2017-07-19T10:56:12.262Z,3165
2017-07-19T10:56:52.772Z,3255
2017-07-19T10:57:33.250Z,3300
2017-07-19T10:58:13.772Z,3315
2017-07-19T10:58:54.300Z,3360
2017-07-19T10:59:34.818Z,3425
2017-07-19T11:00:15.293Z,3445
2017-07-19T11:00:55.918Z,3410
2017-07-19T11:01:36.412Z,3405
2017-07-19T11:02:16.955Z,3405
2017-07-19T11:02:57.474Z,3350
2017-07-19T11:03:37.950Z,3350
2017-07-19T11:04:18.459Z,3400
2017-07-19T11:06:56.556Z,3440
2017-07-19T11:07:37.009Z,3375
2017-07-19T11:08:17.898Z,3410
2017-07-19T11:08:58.431Z,3425
2017-07-19T11:09:38.962Z,3345
2017-07-19T11:10:19.559Z,3340
2017-07-19T11:11:00.062Z,3345
2017-07-19T11:11:40.564Z,3345
2017-07-19T11:12:20.985Z,3265
2017-07-19T11:13:01.496Z,3265
2017-07-19T11:13:41.996Z,3340
2017-07-19T11:15:59.938Z,3165
2017-07-19T11:16:40.457Z,3465
2017-07-19T11:17:20.961Z,3525
2017-07-19T11:19:54.063Z,3400
2017-07-19T11:20:34.737Z,3330
2017-07-19T11:21:15.683Z,3305
2017-07-19T11:23:54.029Z,3415
2017-07-19T11:26:32.234Z,3365
2017-07-19T11:27:12.753Z,3365
2017-07-19T11:27:53.231Z,3355
2017-07-19T11:28:33.697Z,3355
2017-07-19T11:29:14.177Z,3370
2017-07-19T11:29:54.678Z,3360
2017-07-19T11:32:33.236Z,3380
2017-07-19T11:33:13.720Z,3405
2017-07-19T11:33:54.252Z,3405
2017-07-19T11:34:35.249Z,3375
2017-07-19T11:36:48.044Z,3305
2017-07-19T11:37:28.492Z,3315
2017-07-19T11:38:09.167Z,3325
2017-07-19T11:38:49.836Z,3310
2017-07-19T11:39:30.383Z,3290
2017-07-19T11:42:03.568Z,3415
2017-07-19T11:44:31.568Z,3345
2017-07-19T11:45:12.006Z,3335
2017-07-19T11:47:30.577Z,3375
2017-07-19T11:48:12.421Z,3430
2017-07-19T11:48:54.095Z,3435
2017-07-19T11:49:34.649Z,3425
2017-07-19T11:50:15.200Z,3340
2017-07-19T11:50:56.459Z,3360
2017-07-19T11:51:37.106Z,3370
2017-07-19T11:52:17.529Z,3360
2017-07-19T11:52:58.988Z,3340
2017-07-19T11:53:41.528Z,3295
2017-07-19T11:54:22.216Z,2670
2017-07-19T11:55:03.447Z,1635
2017-07-19T11:55:44.252Z,890
2017-07-19T11:56:24.766Z,750
2017-07-19T11:57:05.421Z,715
2017-07-19T11:57:45.988Z,695
2017-07-19T11:58:26.601Z,675
2017-07-19T11:59:07.327Z,670
2017-07-19T11:59:47.878Z,655
2017-07-19T12:00:28.550Z,655
2017-07-19T12:01:08.998Z,650
2017-07-19T12:01:49.850Z,640
2017-07-19T12:02:31.461Z,640
2017-07-19T12:03:12.944Z,635
2017-07-19T12:03:53.488Z,635
2017-07-19T12:04:34.025Z,625
2017-07-19T12:05:14.596Z,620
2017-07-19T12:07:32.790Z,620
2017-07-19T12:08:13.260Z,615
2017-07-19T12:08:53.749Z,620
2017-07-19T12:11:11.634Z,625
2017-07-19T12:11:52.220Z,620
2017-07-19T12:12:32.736Z,625
2017-07-19T12:13:13.257Z,620
2017-07-19T12:13:53.748Z,625
2017-07-19T12:14:34.251Z,630
2017-07-19T12:15:14.740Z,625
2017-07-19T12:15:55.267Z,620
2017-07-19T12:16:35.792Z,635